Vaaraa aiheuttavia sääilmiöitä ei ole odotettavissa.    Ei varoituksia

Webkamera Lisätietoa Webcam


Yksityisiä sääasemia lähellä:

Sääasema Ruovesi, Lehtissaari

Sääasema Juupajoki

Sääasema Orivesi

Sääasema Muurame

Sääasema Jyväskylä

Sääasema Vihtavuori


Löydät sääaseman tiedot myös:

Finland Weather Exchange

European Weather Network

Weather Underground

AWEKAS



Säätiedot lähimmiltä METAR asemilta

   
EFHA - Halli (Fin-Afb), Finland
Etäisyys asemalta: Kaakko 25 km
Päivitetty: 23.09.2018 01:50
Selkeää  
Selkeää  
   Tuuli: Etelä 4.1 m/s
Tuuli: Etelä 4.1 m/s
Lämpötila: 8°C
Tuulen hyytävyys: 6°C
Kastepiste: 6°C
Kosteus: 87%
Ilmanpaine: 994 hPa
Näkyvyys: Enemmän kuin 10 km
Pilvitiedot: Selkeää
EFHA 222250Z AUTO 18008KT CAVOK 08/06 Q0994
EFJY - Jyvaskyla (Mil/Civ), Finland
Etäisyys asemalta: Koillinen 75 km
Päivitetty: 23.09.2018 01:50
Selkeää  
Selkeää  
   Tuuli: Etelä 2.6 m/s
Tuuli: Etelä 2.6 m/s
Lämpötila: 9°C
Tuulen hyytävyys: 8°C
Kastepiste: 7°C
Kosteus: 87%
Ilmanpaine: 993 hPa
Näkyvyys: Enemmän kuin 10 km
Pilvitiedot: Selkeää
EFJY 222250Z AUTO 17005KT 130V230 CAVOK 09/07 Q0993
EFTP - Tampere/Pirkkala, Finland
Etäisyys asemalta: Lounas 81 km
Päivitetty: 23.09.2018 01:50
Vähäistä pilvisyyttä  
Vähäistä pilvisyyttä  
   Tuuli: Etelä 3.6 m/s
Tuuli: Etelä 3.6 m/s
Lämpötila: 9°C
Tuulen hyytävyys: 7°C
Kastepiste: 6°C
Kosteus: 82%
Ilmanpaine: 994 hPa
Pilvisyys: Vähäistä pilvisyyttä
Näkyvyys: Enemmän kuin 10 km
Pilvitiedot: Vähäistä pilvisyyttä 1494 m
EFTP 222250Z AUTO 19007KT 9999 FEW049 09/06 Q0994
EFSI - Seinajoki-Ilmajoki, Finland
Etäisyys asemalta: Luode 114 km
Päivitetty: 22.09.2018 06:50
Ei ajankohtaista tietoa saatavilla
Heikkoja sadekuuroja, Sade  
Heikkoja sadekuuroja, Sade  
   Tuuli: Etelä 5.7 m/s<br />Puuska 5.7 m/s
Tuuli: Etelä 5.7 m/s
Puuska 5.7 m/s
Lämpötila: 14°C
Kastepiste: 10°C
Kosteus: 77%
Ilmanpaine: 987 hPa
Näkyvyys: Enemmän kuin 10 km
EFSI 220350Z AUTO 19011G22KT 120V240 9999 -SHRA ////// 14/10 Q0987
EFMI - Mikkeli, Finland
Etäisyys asemalta: Itäkaakko 147 km
Päivitetty: 23.09.2018 01:50
Selkeää  
Selkeää  
   Tuuli: Eteläkaakko 1.5 m/s
Tuuli: Eteläkaakko 1.5 m/s
Lämpötila: 8°C
Tuulen hyytävyys: 7°C
Kastepiste: 7°C
Kosteus: 93%
Ilmanpaine: 996 hPa
Näkyvyys: Enemmän kuin 10 km
Pilvitiedot: Selkeää
EFMI 222250Z AUTO 15003KT CAVOK 08/07 Q0996
EFPO - Pori (Mil/Civ), Finland
Etäisyys asemalta: Länsilounas 154 km
Päivitetty: 23.09.2018 01:50
Selkeää  
Selkeää  
   Tuuli: Lounas 4.1 m/s
Tuuli: Lounas 4.1 m/s
Lämpötila: 12°C
Kastepiste: 6°C
Kosteus: 67%
Ilmanpaine: 993 hPa
Näkyvyys: Enemmän kuin 10 km
Pilvitiedot: Selkeää
EFPO 222250Z AUTO 22008KT 190V250 CAVOK 12/06 Q0993
EFUT - Utti (Fin-Afb), Finland
Etäisyys asemalta: Kaakko 180 km
Päivitetty: 23.09.2018 01:50
Selkeää  
Selkeää  
   Tuuli: Etelä 2.1 m/s
Tuuli: Etelä 2.1 m/s
Lämpötila: 8°C
Tuulen hyytävyys: 7°C
Kastepiste: 7°C
Kosteus: 93%
Ilmanpaine: 997 hPa
Näkyvyys: Enemmän kuin 10 km
Pilvitiedot: Selkeää
EFUT 222250Z AUTO 17004KT CAVOK 08/07 Q0997
EFVA - Vaasa, Finland
Etäisyys asemalta: Luode 180 km
Päivitetty: 23.09.2018 01:50
Selkeää  
Selkeää  
   Tuuli: Etelälounas 4.1 m/s
Tuuli: Etelälounas 4.1 m/s
Lämpötila: 9°C
Tuulen hyytävyys: 7°C
Kastepiste: 6°C
Kosteus: 82%
Ilmanpaine: 988 hPa
Näkyvyys: Enemmän kuin 10 km
Pilvitiedot: Selkeää
EFVA 222250Z AUTO 20008KT CAVOK 09/06 Q0988
EFHK - Helsinki/Vantaa, Finland
Etäisyys asemalta: Etelä 191 km
Päivitetty: 23.09.2018 01:50
Selkeää  
Selkeää  
   Tuuli: Etelälounas 5.1 m/s
Tuuli: Etelälounas 5.1 m/s
Lämpötila: 11°C
Kastepiste: 6°C
Kosteus: 72%
Ilmanpaine: 997 hPa
Näkyvyys: Enemmän kuin 10 km
Pilvitiedot: Selkeää
EFHK 222250Z 21010KT CAVOK 11/06 Q0997 NOSIG

Alkuperäinen skripti  Saratoga-weather.org Sovitettu myös templatelle  Weerstation Leuven

Laitteet joita käytämme:

Sääasema
Davis VP2

Sääasemaohjelma
Cumulus

Sääaseman palvelin
HP ProBook 6460b

Palveluntarjoaja
Radicenter

Davis VP2

Cumulus

HP ProBook 6460b

Radicenter




Flag Counter Cumulus Top Weather Sites